Latest Weather Observations for Mount Gellibrand

IDV60801

Issued at 11:02 pm EDT Sunday 1 March 2015 (issued every 30 minutes, with the page automatically refreshed every 10 minutes)

About weather observations | Map of weather stations | Latest weather observations for VIC | Other Formats
Station Details ID: 090035 Name: MOUNT GELLIBRAND Lat: -38.23 Lon: 143.79 Height: 261.0 m
Data from the previous 72 hours. | See also: Recent months at Mount Gellibrand
Date/Time
EDT
Temp
°C
App
Temp
°C
Dew
Point
Rel
Hum
%
Delta-T
°C
Wind Press
QNH
hPa
Press
MSL
hPa
Rain
since 9 am
mm
Dir
 
Spd
km/h
Gust
km/h
Spd
kts
Gust
kts
01/11:00pm 10.4 6.4 6.7 78 1.8 SSW 17 19 9 10 1018.9 1018.4 0.0
01/10:30pm 10.3 6.0 7.2 81 1.5 S 19 20 10 11 1019.1 1018.6 0.0
01/10:00pm 10.4 6.0 7.3 81 1.5 S 20 24 11 13 1019.0 1018.5 0.0
01/09:30pm 10.9 5.8 7.6 80 1.6 S 24 28 13 15 1018.6 1018.0 0.0
01/09:00pm 11.5 7.1 7.6 77 1.9 S 20 24 11 13 1018.3 1017.7 0.0
01/08:30pm 12.2 7.3 7.1 71 2.5 SSW 22 28 12 15 1017.9 1017.3 0.0
01/08:00pm 13.2 8.1 7.6 69 2.8 SSW 24 32 13 17 1017.4 1016.8 0.0
01/07:30pm 14.6 9.2 7.9 64 3.4 SSW 26 33 14 18 1017.1 1016.5 0.0
01/07:00pm 15.7 10.5 8.7 63 3.6 S 26 33 14 18 1017.0 1016.4 0.0
01/06:30pm 16.4 11.1 8.6 60 4.0 SSW 26 32 14 17 1017.1 1016.5 0.0
01/06:00pm 17.2 11.1 8.4 56 4.6 SSW 30 35 16 19 1016.8 1016.2 0.0
01/05:30pm 17.1 10.8 9.0 59 4.2 S 32 41 17 22 1016.1 1015.5 0.0
01/05:00pm 18.9 13.6 8.3 50 5.5 SSW 26 33 14 18 1016.2 1015.6 0.0
01/04:30pm 19.8 14.2 8.8 49 5.8 SSW 28 37 15 20 1016.1 1015.5 0.0
01/04:00pm 19.0 13.1 8.9 52 5.3 SSW 30 41 16 22 1015.7 1015.2 0.0
01/03:30pm 20.1 15.4 9.4 50 5.8 SW 24 35 13 19 1015.6 1015.1 0.0
01/03:00pm 19.9 15.1 8.9 49 5.8 SW 24 32 13 17 1015.5 1015.0 0.0
01/02:30pm 18.7 13.9 8.7 52 5.3 SW 24 33 13 18 1015.5 1015.0 0.0
01/02:00pm 19.9 15.0 10.0 53 5.4 SW 26 33 14 18 1015.2 1014.6 0.0
01/01:30pm 18.5 13.3 8.7 53 5.2 SSW 26 35 14 19 1015.2 1014.6 0.0
01/01:00pm 19.2 15.4 11.0 59 4.5 SSW 22 33 12 18 1015.0 1014.4 0.0
01/12:30pm 17.2 11.5 11.7 70 3.0 SSW 33 44 18 24 1014.9 1014.3 0.0
01/12:00pm 17.1 13.7 11.4 69 3.1 S 20 28 11 15 1014.7 1014.1 0.0
01/11:30am 17.3 13.6 10.2 63 3.8 SSW 20 32 11 17 1014.7 1014.1 0.0
01/11:00am 16.9 13.0 10.7 67 3.4 SSW 22 32 12 17 1014.2 1013.6 0.0
01/10:30am 16.2 12.5 11.4 73 2.6 SSW 22 28 12 15 1013.9 1013.1 0.0
01/10:00am 15.5 12.6 10.9 74 2.5 SSW 17 26 9 14 1013.5 1012.7 0.0
01/09:30am 14.8 13.3 13.0 89 1.0 WSW 13 17 7 9 1013.1 1012.3 0.0
01/09:00am 13.5 11.7 12.1 91 0.8 WSW 13 15 7 8 1012.6 1011.8 6.0
01/08:30am 12.6 10.2 11.3 92 0.7 WSW 15 19 8 10 1012.0 1011.1 6.0
01/08:00am 12.2 9.0 11.1 93 0.6 WSW 19 20 10 11 1011.3 1010.5 6.0
01/07:30am 11.4 8.4 10.5 94 0.5 WSW 17 19 9 10 1010.7 1009.9 6.0
01/07:00am 11.5 8.4 10.2 92 0.7 SW 17 19 9 10 1010.1 1009.3 6.0
01/06:30am 12.3 8.7 10.7 90 0.8 SW 20 24 11 13 1009.6 1008.8 6.0
01/06:00am 11.7 7.8 10.8 94 0.5 WSW 22 26 12 14 1009.2 1008.4 6.0
01/05:30am 11.5 9.2 10.4 93 0.6 W 13 17 7 9 1008.8 1007.9 6.0
01/05:00am 11.8 9.5 10.5 92 0.7 W 13 15 7 8 1008.5 1007.6 6.0
01/04:30am 12.5 9.2 10.9 90 0.8 WSW 19 20 10 11 1008.2 1007.3 6.0
01/04:00am 12.5 9.0 10.9 90 0.8 WSW 20 26 11 14 1007.9 1007.0 6.0
01/03:30am 12.7 8.9 11.3 91 0.7 SW 22 24 12 13 1007.7 1006.9 6.0
01/03:00am 12.9 8.8 11.5 91 0.8 SW 24 30 13 16 1007.5 1006.7 6.0
01/02:30am 13.4 9.5 12.1 92 0.7 SW 24 33 13 18 1007.4 1006.6 6.0
01/02:00am 13.4 9.9 12.3 93 0.6 WSW 22 26 12 14 1007.6 1006.8 6.0
01/01:30am 13.6 9.7 12.0 90 0.9 SW 24 30 13 16 1007.2 1006.4 6.0
01/01:00am 14.3 9.2 13.0 92 0.7 SW 32 39 17 21 1006.9 1006.1 6.0
01/12:30am 14.4 9.3 13.8 96 0.3 SW 33 41 18 22 1006.6 1005.8 6.0
01/12:00am 15.5 11.4 14.9 96 0.3 SW 30 41 16 22 1006.1 1005.3 6.0
 
Date/Time
EDT
Temp
°C
App
Temp
°C
Dew
Point
Rel
Hum
%
Delta-T
°C
Wind Press
QNH
hPa
Press
MSL
hPa
Rain
since 9 am
mm
Dir
 
Spd
km/h
Gust
km/h
Spd
kts
Gust
kts
28/11:30pm 15.7 12.0 15.1 96 0.4 WSW 28 32 15 17 1006.0 1005.2 6.0
28/11:00pm 15.9 11.9 15.3 96 0.4 SW 30 33 16 18 1005.9 1005.1 6.0
28/10:30pm 16.3 13.2 15.7 96 0.4 WSW 26 33 14 18 1006.2 1005.4 6.0
28/10:00pm 16.7 14.6 16.1 96 0.4 WSW 22 32 12 17 1006.5 1005.7 6.0
28/09:30pm 17.0 15.4 16.4 96 0.4 W 20 26 11 14 1005.6 1004.7 5.8
28/09:00pm 17.1 16.4 16.3 95 0.5 W 15 22 8 12 1005.2 1004.3 5.4
28/08:30pm 17.0 14.1 16.2 95 0.5 SW 26 33 14 18 1004.7 1003.8 4.8
28/08:00pm 17.2 12.6 16.2 94 0.6 SW 35 44 19 24 1004.3 1003.4 3.8
28/07:30pm 19.7 13.2 16.5 82 1.9 WSW 46 67 25 36 1004.6 1003.7 1.0
28/07:21pm 22.2 17.7 14.8 63 4.4 SSW 32 54 17 29 1003.1 1002.3 0.4
28/07:00pm 22.7 17.8 15.3 63 4.5 S 35 44 19 24 1001.0 1000.1 0.4
28/06:30pm 24.2 17.8 15.9 59 5.1 SSW 44 57 24 31 1000.5 999.6 0.4
28/06:06pm 26.5 20.9 15.5 50 6.8 SW 39 57 21 31 1000.4 999.5 0.4
28/06:00pm 28.0 23.9 15.0 45 8.0 SW 30 41 16 22 1000.7 999.8 0.4
28/05:30pm 28.5 26.0 14.0 41 8.8 WSW 20 30 11 16 1000.9 1000.0 0.4
28/05:00pm 28.8 22.8 10.9 33 10.4 W 33 41 18 22 1001.1 1000.2 0.4
28/04:38pm 29.6 22.8 10.7 31 10.9 WNW 37 57 20 31 1001.5 1000.6 0.4
28/04:30pm 30.2 22.3 10.7 30 11.3 WNW 43 57 23 31 1001.1 1000.2 0.4
28/04:07pm 30.9 24.8 11.8 31 11.3 NW 35 56 19 30 1001.4 1000.5 0.4
28/04:00pm 30.5 27.5 11.9 31 11.0 WNW 19 43 10 23 1001.8 1000.9 0.4
28/03:30pm 27.5 23.9 11.9 38 9.1 N 22 28 12 15 1002.5 1001.7 0.4
28/03:00pm 27.6 22.5 12.0 38 9.1 NNW 30 43 16 23 1003.2 1002.4 0.4
28/02:30pm 26.9 20.7 12.5 40 8.5 N 37 46 20 25 1003.3 1002.5 0.4
28/02:24pm 27.2 21.4 12.8 41 8.5 N 35 46 19 25 1003.2 1002.4 0.4
28/02:00pm 24.3 22.5 16.0 60 5.1 NNE 20 28 11 15 1004.0 1003.1 0.4
28/01:30pm 24.4 22.9 15.3 57 5.5 N 17 24 9 13 1004.5 1003.6 0.4
28/01:00pm 21.6 22.2 15.4 68 3.7 N 6 11 3 6 1005.2 1004.3 0.4
28/12:30pm 20.9 21.1 15.7 72 3.1 N 9 13 5 7 1005.5 1004.6 0.4
28/12:00pm 20.2 19.6 15.6 75 2.8 N 13 19 7 10 1005.8 1005.0 0.4
28/11:30am 20.1 21.0 16.7 81 2.1 NNE 7 13 4 7 1005.9 1005.1 0.4
28/11:00am 19.4 19.5 16.6 84 1.7 W 11 13 6 7 1006.3 1005.5 0.4
28/10:30am 17.1 15.2 15.1 88 1.2 WSW 19 24 10 13 1006.8 1006.0 0.4
28/10:00am 16.5 13.7 14.2 86 1.3 WNW 22 32 12 17 1007.1 1006.3 0.0
28/09:50am 16.6 12.6 14.1 85 1.4 WNW 28 35 15 19 1007.3 1006.5 0.0
28/09:30am 18.1 16.6 13.0 72 2.9 NNW 13 17 7 9 1006.7 1005.9 0.0
28/09:00am 18.5 16.8 12.5 68 3.4 N 13 19 7 10 1005.9 1005.1 0.0
28/08:30am 17.9 15.9 12.8 72 2.9 NW 15 20 8 11 1006.5 1005.7 0.0
28/08:00am 17.8 16.2 12.7 72 2.9 NNW 13 17 7 9 1006.3 1005.5 0.0
28/07:30am 15.7 15.6 13.9 89 1.0 NNE 7 13 4 7 1006.5 1005.7 0.0
28/07:00am 15.0 14.0 13.5 91 0.9 NE 11 13 6 7 1006.1 1005.3 0.0
28/06:30am 15.0 12.9 13.5 91 0.8 NE 17 22 9 12 1006.0 1005.2 0.0
28/06:00am 14.8 11.7 13.5 92 0.7 NE 22 28 12 15 1005.9 1005.1 0.0
28/05:30am 14.4 11.5 13.0 91 0.8 ENE 20 24 11 13 1006.0 1005.2 0.0
28/05:00am 14.3 11.0 12.9 91 0.8 ENE 22 28 12 15 1006.2 1005.4 0.0
28/04:30am 14.2 11.3 12.8 91 0.8 E 20 24 11 13 1006.3 1005.5 0.0
28/04:00am 14.2 10.5 12.8 91 0.8 E 24 28 13 15 1006.8 1006.0 0.0
28/03:30am 14.1 10.4 12.7 91 0.8 E 24 28 13 15 1007.5 1006.7 0.0
28/03:00am 14.2 10.8 12.6 90 0.9 ENE 22 24 12 13 1008.3 1007.4 0.0
28/02:30am 14.2 11.2 12.6 90 0.9 ENE 20 24 11 13 1008.9 1008.0 0.0
28/02:00am 14.2 11.2 12.6 90 0.9 E 20 24 11 13 1009.3 1008.5 0.0
28/01:30am 14.2 11.3 12.8 91 0.8 ENE 20 24 11 13 1009.5 1008.7 0.0
28/01:00am 14.2 11.3 12.8 91 0.8 ENE 20 24 11 13 1010.1 1009.3 0.0
28/12:30am 14.2 10.9 12.9 92 0.7 E 22 26 12 14 1010.3 1009.5 0.0
28/12:00am 14.3 12.0 13.0 92 0.7 E 17 20 9 11 1010.7 1009.9 0.0
 
Date/Time
EDT
Temp
°C
App
Temp
°C
Dew
Point
Rel
Hum
%
Delta-T
°C
Wind Press
QNH
hPa
Press
MSL
hPa
Rain
since 9 am
mm
Dir
 
Spd
km/h
Gust
km/h
Spd
kts
Gust
kts
27/11:30pm 14.3 12.0 12.9 91 0.8 E 17 20 9 11 1011.0 1010.2 0.0
27/11:00pm 14.7 13.1 12.7 88 1.1 E 13 17 7 9 1011.4 1010.6 0.0
27/10:30pm 14.8 12.8 12.7 87 1.2 E 15 19 8 10 1011.4 1010.6 0.0
27/10:00pm 15.0 12.9 12.5 85 1.4 ENE 15 17 8 9 1011.2 1010.4 0.0
27/09:30pm 15.2 13.5 12.5 84 1.5 E 13 15 7 8 1011.2 1010.4 0.0
27/09:00pm 15.3 14.4 12.6 84 1.5 E 9 11 5 6 1011.0 1010.2 0.0
27/08:30pm 15.4 14.1 12.5 83 1.6 ESE 11 13 6 7 1010.8 1010.0 0.0
27/08:00pm 15.6 13.5 12.5 82 1.7 ESE 15 17 8 9 1010.7 1009.9 0.0
27/07:30pm 15.8 12.8 12.5 81 1.8 ESE 20 24 11 13 1010.6 1009.8 0.0
27/07:00pm 16.2 12.9 12.7 80 2.0 ESE 22 26 12 14 1010.4 1009.6 0.0
27/06:30pm 16.7 13.4 12.8 78 2.2 ESE 22 28 12 15 1010.0 1009.2 0.0
27/06:00pm 17.2 13.6 13.1 77 2.3 ESE 24 28 13 15 1010.0 1009.2 0.0
27/05:30pm 17.5 14.4 13.4 77 2.3 E 22 28 12 15 1009.4 1008.6 0.0
27/05:00pm 18.5 15.1 13.6 73 2.8 ESE 24 30 13 16 1009.7 1008.9 0.0
27/04:30pm 19.7 16.4 13.9 69 3.4 ESE 24 28 13 15 1009.7 1008.9 0.0
27/04:00pm 21.0 18.6 14.4 66 3.9 ESE 20 30 11 16 1009.8 1009.0 0.0
27/03:30pm 22.5 21.3 11.6 50 6.2 W 9 15 5 8 1010.4 1009.6 0.0
27/03:00pm 21.5 20.3 11.5 53 5.6 W 9 15 5 8 1010.7 1009.9 0.0
27/02:30pm 21.1 19.8 11.2 53 5.5 W 9 17 5 9 1010.8 1010.0 0.0
27/02:00pm 21.7 20.3 10.8 50 6.1 WNW 9 17 5 9 1010.8 1010.0 0.0
27/01:30pm 21.2 19.3 10.4 50 6.0 NNW 11 17 6 9 1010.7 1009.9 0.0
27/01:00pm 21.6 20.5 10.7 50 6.1 WSW 7 19 4 10 1011.1 1010.3 0.0
27/12:30pm 21.8 20.5 12.4 55 5.4 NNW 11 20 6 11 1011.5 1010.7 0.0
27/12:00pm 19.3 18.6 11.3 60 4.4 NW 6 11 3 6 1011.7 1010.9 0.0
27/11:30am 20.7 20.0 11.9 57 5.0 NNE 7 15 4 8 1012.0 1011.1 0.0
27/11:00am 19.3 18.7 11.6 61 4.3 NNW 6 7 3 4 1012.0 1011.1 0.0
27/10:30am 17.6 17.8 12.9 74 2.7 NNW 4 6 2 3 1011.9 1011.0 0.0
27/10:00am 16.6 16.5 13.3 81 1.9 WSW 6 9 3 5 1012.1 1011.2 0.0
27/09:30am 17.0 16.9 13.9 82 1.8 W 7 11 4 6 1011.9 1011.0 0.0
27/09:00am 15.7 15.9 14.2 91 0.9 SW 6 7 3 4 1011.4 1010.6 0.0
27/08:30am 15.4 14.9 13.8 90 0.9 WSW 9 11 5 6 1011.3 1010.5 0.0
27/08:00am 15.0 15.4 13.7 92 0.7 SW 4 6 2 3 1011.0 1010.2 0.0
27/07:30am 14.8 14.7 13.3 91 0.8 W 6 9 3 5 1011.1 1010.3 0.0
27/07:00am 14.5 14.3 13.0 91 0.8 W 6 6 3 3 1010.8 1010.0 0.0
27/06:30am 14.6 14.2 13.1 91 0.8 WSW 7 9 4 5 1010.6 1009.8 0.0
27/06:00am 14.5 13.7 13.0 91 0.8 WNW 9 9 5 5 1010.5 1009.7 0.0
27/05:30am 14.6 14.2 13.1 91 0.8 NW 7 9 4 5 1010.4 1009.6 0.0
27/05:00am 14.8 14.1 13.2 90 0.9 NW 9 11 5 6 1010.3 1009.5 0.0
27/04:30am 15.0 14.3 13.2 89 1.0 NW 9 13 5 7 1010.6 1009.8 0.0
27/04:00am 15.1 14.7 13.1 88 1.1 NW 7 9 4 5 1011.0 1010.2 0.0
27/03:30am 14.9 14.7 13.1 89 1.0 NNW 6 9 3 5 1010.9 1010.1 0.0
27/03:00am 14.9 14.4 12.8 87 1.2 NNW 7 9 4 5 1011.0 1010.2 0.0
27/02:30am 15.3 15.4 12.8 85 1.4 W 4 6 2 3 1011.5 1010.7 0.0
27/02:00am 15.6 15.4 13.1 85 1.4 SSW 6 7 3 4 1012.0 1011.1 0.0
27/01:30am 15.3 16.1 12.6 84 1.5 CALM 0 0 0 0 1011.9 1011.0 0.0
27/01:00am 15.0 15.3 12.3 84 1.5 SSW 2 4 1 2 1011.6 1010.8 0.0
27/12:30am 15.2 16.0 12.7 85 1.4 CALM 0 0 0 0 1012.1 1011.2 0.0
27/12:00am 15.1 15.9 12.4 84 1.5 CALM 0 4 0 2 1012.1 1011.2 0.0
 
Date/Time
EDT
Temp
°C
App
Temp
°C
Dew
Point
Rel
Hum
%
Delta-T
°C
Wind Press
QNH
hPa
Press
MSL
hPa
Rain
since 9 am
mm
Dir
 
Spd
km/h
Gust
km/h
Spd
kts
Gust
kts
26/11:30pm 15.3 14.4 12.6 84 1.5 SSW 9 11 5 6 1012.3 1011.4 0.0

Other Formats:

Comma delimited format used in spreadsheet applications
http://www.bom.gov.au/fwo/IDV60801/IDV60801.95845.axf

JavaScript Object Notation format (JSON) in row-major order
http://www.bom.gov.au/fwo/IDV60801/IDV60801.95845.json